createdAt,value
2022-08-12T00:00:24.178Z,147
2022-08-12T00:00:41.515Z,147
2022-08-12T00:01:11.281Z,147
2022-08-12T00:02:04.213Z,147
2022-08-12T00:02:15.188Z,147
2022-08-12T00:02:34.192Z,147
2022-08-12T00:03:03.375Z,147
2022-08-12T00:03:35.804Z,147
2022-08-12T00:04:07.262Z,147
2022-08-12T00:04:34.095Z,147
2022-08-12T00:04:55.179Z,147
2022-08-12T00:05:28.232Z,147
2022-08-12T00:06:04.531Z,147
2022-08-12T00:06:31.188Z,147
2022-08-12T00:07:03.963Z,147
2022-08-12T00:07:34.158Z,147
2022-08-12T00:07:51.320Z,147
2022-08-12T00:08:28.557Z,147
2022-08-12T00:08:40.377Z,147
2022-08-12T00:09:12.574Z,147
2022-08-12T00:09:36.633Z,147
2022-08-12T00:09:59.307Z,147
2022-08-12T00:10:31.432Z,147
2022-08-12T00:11:11.319Z,147
2022-08-12T00:11:34.087Z,147
2022-08-12T00:11:52.955Z,147
2022-08-12T00:12:23.809Z,147
2022-08-12T00:12:41.130Z,147
2022-08-12T00:13:11.498Z,147
2022-08-12T00:13:34.158Z,147
2022-08-12T00:13:59.176Z,147
2022-08-12T00:14:31.964Z,147
2022-08-12T00:15:03.437Z,147
2022-08-12T00:15:35.004Z,147
2022-08-12T00:16:07.195Z,147
2022-08-12T00:16:34.073Z,147
2022-08-12T00:16:55.352Z,147
2022-08-12T00:17:27.200Z,147
2022-08-12T00:17:59.913Z,147
2022-08-12T00:18:31.168Z,147
2022-08-12T00:19:03.843Z,147
2022-08-12T00:19:34.087Z,147
2022-08-12T00:19:51.424Z,147
2022-08-12T00:20:23.311Z,147
2022-08-12T00:20:41.333Z,147
2022-08-12T00:21:11.908Z,147
2022-08-12T00:21:35.929Z,147
2022-08-12T00:21:59.193Z,147
2022-08-12T00:22:31.565Z,147
2022-08-12T00:23:03.197Z,147
2022-08-12T00:23:34.737Z,147
2022-08-12T00:23:51.284Z,147
2022-08-12T00:24:23.831Z,147
2022-08-12T00:24:41.027Z,147
2022-08-12T00:25:11.272Z,147
2022-08-12T00:26:05.661Z,147
2022-08-12T00:26:31.731Z,147
2022-08-12T00:27:03.197Z,147
2022-08-12T00:27:44.230Z,147
2022-08-12T00:28:07.252Z,147
2022-08-12T00:28:34.178Z,147
2022-08-12T00:28:55.176Z,147
2022-08-12T00:29:27.139Z,147
2022-08-12T00:29:59.975Z,147
2022-08-12T00:30:32.269Z,147
2022-08-12T00:31:04.150Z,147
2022-08-12T00:31:34.084Z,147
2022-08-12T00:31:51.206Z,147
2022-08-12T00:32:36.117Z,147
2022-08-12T00:32:43.513Z,147
2022-08-12T00:33:11.766Z,147
2022-08-12T00:33:38.625Z,147
2022-08-12T00:33:59.201Z,147
2022-08-12T00:34:32.290Z,147
2022-08-12T00:35:09.084Z,147
2022-08-12T00:35:36.492Z,147
2022-08-12T00:35:51.383Z,147
2022-08-12T00:36:36.111Z,147
2022-08-12T00:36:41.042Z,147
2022-08-12T00:37:13.196Z,147
2022-08-12T00:37:34.681Z,147
2022-08-12T00:37:59.931Z,147
2022-08-12T00:38:31.775Z,147
2022-08-12T00:39:03.181Z,147
2022-08-12T00:39:35.064Z,147
2022-08-12T00:40:10.874Z,147
2022-08-12T00:40:34.159Z,147
2022-08-12T00:40:55.322Z,147
2022-08-12T00:41:27.190Z,147
2022-08-12T00:42:00.001Z,147
2022-08-12T00:42:31.307Z,147
2022-08-12T00:43:03.830Z,147
2022-08-12T00:43:34.076Z,147
2022-08-12T00:43:51.162Z,147
2022-08-12T00:44:24.095Z,147
2022-08-12T00:44:41.174Z,147
2022-08-12T00:45:11.790Z,147
2022-08-12T00:45:34.085Z,147
2022-08-12T00:45:59.288Z,147
2022-08-12T00:46:31.182Z,147
2022-08-12T00:47:03.232Z,147
2022-08-12T00:47:34.139Z,147
2022-08-12T00:47:51.280Z,147
2022-08-12T00:48:23.936Z,147
2022-08-12T00:48:41.457Z,147
2022-08-12T00:49:11.267Z,147
2022-08-12T00:49:34.874Z,147
2022-08-12T00:49:59.244Z,147
2022-08-12T00:50:32.083Z,147
2022-08-12T00:51:03.194Z,147
2022-08-12T00:51:34.689Z,147
2022-08-12T00:51:52.922Z,147
2022-08-12T00:52:23.221Z,147
2022-08-12T00:52:55.155Z,147
2022-08-12T00:53:28.674Z,147
2022-08-12T00:53:59.281Z,147
2022-08-12T00:54:32.107Z,147
2022-08-12T00:55:03.312Z,147
2022-08-12T00:55:34.135Z,147
2022-08-12T00:56:07.739Z,147
2022-08-12T00:56:34.197Z,147
2022-08-12T00:56:55.141Z,147
2022-08-12T00:57:27.177Z,147
2022-08-12T00:58:00.210Z,147
2022-08-12T00:58:31.322Z,147
2022-08-12T00:59:04.152Z,147
2022-08-12T00:59:34.083Z,147
2022-08-12T01:00:07.386Z,147
2022-08-12T01:00:35.009Z,147
2022-08-12T01:00:55.383Z,147
2022-08-12T01:01:28.789Z,147
2022-08-12T01:02:15.201Z,147
2022-08-12T01:02:34.342Z,147
2022-08-12T01:03:03.236Z,147
2022-08-12T01:03:35.653Z,147
2022-08-12T01:04:07.212Z,147
2022-08-12T01:04:34.092Z,147
2022-08-12T01:04:56.861Z,147
2022-08-12T01:05:27.386Z,147
2022-08-12T01:05:59.966Z,147
2022-08-12T01:06:31.135Z,147
2022-08-12T01:07:03.987Z,147
2022-08-12T01:07:37.136Z,147
2022-08-12T01:08:07.676Z,147
2022-08-12T01:08:34.222Z,147
2022-08-12T01:08:56.266Z,147
2022-08-12T01:09:27.148Z,147
2022-08-12T01:09:59.341Z,147
2022-08-12T01:10:33.091Z,147
2022-08-12T01:11:03.211Z,147
2022-08-12T01:11:34.092Z,147
2022-08-12T01:12:07.151Z,147
2022-08-12T01:12:34.289Z,147
2022-08-12T01:12:55.196Z,147
2022-08-12T01:13:27.805Z,147
2022-08-12T01:14:00.185Z,147
2022-08-12T01:14:31.790Z,147
2022-08-12T01:15:04.544Z,147
2022-08-12T01:15:35.024Z,147
2022-08-12T01:16:07.191Z,147
2022-08-12T01:16:34.086Z,147
2022-08-12T01:16:56.203Z,147
2022-08-12T01:17:27.267Z,147
2022-08-12T01:17:59.737Z,147
2022-08-12T01:18:31.138Z,147
2022-08-12T01:19:03.861Z,147
2022-08-12T01:19:34.200Z,147
2022-08-12T01:19:51.716Z,147
2022-08-12T01:20:23.301Z,147
2022-08-12T01:20:40.603Z,147
2022-08-12T01:21:12.048Z,147
2022-08-12T01:21:34.175Z,147
2022-08-12T01:21:59.299Z,147
2022-08-12T01:22:31.477Z,147
2022-08-12T01:23:03.223Z,147
2022-08-12T01:23:34.090Z,147
2022-08-12T01:24:30.327Z,147
2022-08-12T01:24:34.212Z,147
2022-08-12T01:24:55.203Z,147
2022-08-12T01:25:27.981Z,147
2022-08-12T01:25:59.132Z,147
2022-08-12T01:26:32.456Z,147
2022-08-12T01:27:03.272Z,147
2022-08-12T01:27:35.989Z,147
2022-08-12T01:28:07.832Z,147
2022-08-12T01:28:35.316Z,147
2022-08-12T01:28:55.234Z,147
2022-08-12T01:29:28.575Z,147
2022-08-12T01:29:59.982Z,147
2022-08-12T01:30:31.971Z,147
2022-08-12T01:31:03.842Z,147
2022-08-12T01:31:34.190Z,147
2022-08-12T01:32:07.931Z,147
2022-08-12T01:32:36.284Z,147
2022-08-12T01:33:08.552Z,147
2022-08-12T01:33:27.151Z,147
2022-08-12T01:34:00.214Z,147
2022-08-12T01:34:36.326Z,147
2022-08-12T01:35:03.282Z,147
2022-08-12T01:35:35.018Z,147
2022-08-12T01:36:08.476Z,147
2022-08-12T01:36:34.085Z,147
2022-08-12T01:36:55.254Z,147
2022-08-12T01:37:27.135Z,147
2022-08-12T01:38:00.892Z,147
2022-08-12T01:38:31.165Z,147
2022-08-12T01:39:04.280Z,147
2022-08-12T01:39:34.681Z,147
2022-08-12T01:40:34.041Z,147
2022-08-12T01:40:42.535Z,147
2022-08-12T01:41:11.802Z,147
2022-08-12T01:41:34.982Z,147
2022-08-12T01:41:59.138Z,147
2022-08-12T01:42:31.191Z,147
2022-08-12T01:43:03.254Z,147
2022-08-12T01:43:36.333Z,147
2022-08-12T01:44:08.087Z,147
2022-08-12T01:44:35.270Z,147
2022-08-12T01:44:55.128Z,147
2022-08-12T01:45:28.900Z,147
2022-08-12T01:45:59.235Z,147
2022-08-12T01:46:31.170Z,147
2022-08-12T01:47:04.047Z,147
2022-08-12T01:47:36.151Z,147
2022-08-12T01:48:07.284Z,147
2022-08-12T01:48:34.230Z,147
2022-08-12T01:48:55.834Z,147
2022-08-12T01:49:27.118Z,147
2022-08-12T01:50:15.835Z,147
2022-08-12T01:50:34.125Z,147
2022-08-12T01:51:05.265Z,147
2022-08-12T01:52:21.833Z,147
2022-08-12T01:52:26.005Z,147
2022-08-12T01:52:55.238Z,147
2022-08-12T01:53:28.297Z,147
2022-08-12T01:53:59.847Z,147
2022-08-12T01:54:32.174Z,147
2022-08-12T01:55:04.056Z,147
2022-08-12T01:55:35.608Z,147
2022-08-12T01:56:07.175Z,147
2022-08-12T01:56:34.178Z,147
2022-08-12T01:56:56.091Z,147
2022-08-12T01:57:58.589Z,147
2022-08-12T01:58:15.307Z,147
2022-08-12T01:58:34.964Z,147
2022-08-12T01:59:05.142Z,147
2022-08-12T01:59:34.108Z,147
2022-08-12T02:00:08.302Z,147
2022-08-12T02:00:35.868Z,147
2022-08-12T02:00:56.228Z,147
2022-08-12T02:01:27.251Z,147
2022-08-12T02:01:59.235Z,147
2022-08-12T02:02:31.298Z,147
2022-08-12T02:03:03.142Z,147
2022-08-12T02:03:34.103Z,147
2022-08-12T02:04:07.212Z,147
2022-08-12T02:04:35.223Z,147
2022-08-12T02:04:56.250Z,147
2022-08-12T02:05:28.174Z,147
2022-08-12T02:05:59.107Z,147
2022-08-12T02:06:34.048Z,147
2022-08-12T02:07:03.192Z,147
2022-08-12T02:07:34.957Z,147
2022-08-12T02:08:07.142Z,147
2022-08-12T02:08:34.114Z,147
2022-08-12T02:08:55.298Z,147
2022-08-12T02:09:28.107Z,147
2022-08-12T02:10:00.924Z,147
2022-08-12T02:10:50.643Z,147
2022-08-12T02:11:03.219Z,147
2022-08-12T02:11:34.959Z,147
2022-08-12T02:12:08.562Z,147
2022-08-12T02:12:34.341Z,147
2022-08-12T02:12:55.149Z,147
2022-08-12T02:13:41.761Z,147
2022-08-12T02:13:59.807Z,147
2022-08-12T02:14:31.828Z,147
2022-08-12T02:15:03.426Z,147
2022-08-12T02:15:34.137Z,147
2022-08-12T02:15:51.742Z,147
2022-08-12T02:16:24.849Z,147
2022-08-12T02:16:42.250Z,147
2022-08-12T02:17:11.103Z,147
2022-08-12T02:17:55.397Z,147
2022-08-12T02:17:59.248Z,147
2022-08-12T02:18:31.246Z,147
2022-08-12T02:19:03.126Z,147
2022-08-12T02:19:34.090Z,147
2022-08-12T02:20:07.251Z,147
2022-08-12T02:20:50.894Z,147
2022-08-12T02:20:55.335Z,147
2022-08-12T02:21:27.802Z,147
2022-08-12T02:21:59.114Z,147
2022-08-12T02:22:32.076Z,147
2022-08-12T02:23:03.240Z,147
2022-08-12T02:23:34.259Z,147
2022-08-12T02:24:08.694Z,147
2022-08-12T02:24:34.173Z,147
2022-08-12T02:24:55.166Z,147
2022-08-12T02:25:28.021Z,147
2022-08-12T02:25:59.172Z,147
2022-08-12T02:26:31.095Z,147
2022-08-12T02:27:03.191Z,147
2022-08-12T02:27:34.243Z,147
2022-08-12T02:28:08.749Z,147
2022-08-12T02:28:35.648Z,147
2022-08-12T02:28:56.005Z,147
2022-08-12T02:29:27.198Z,147
2022-08-12T02:29:59.238Z,147
2022-08-12T02:30:38.362Z,147
2022-08-12T02:31:03.126Z,147
2022-08-12T02:31:35.280Z,147
2022-08-12T02:32:07.247Z,147
2022-08-12T02:32:35.665Z,147
2022-08-12T02:32:56.746Z,147
2022-08-12T02:33:27.150Z,147
2022-08-12T02:33:59.879Z,147
2022-08-12T02:34:31.264Z,147
2022-08-12T02:35:03.352Z,147
2022-08-12T02:35:34.093Z,147
2022-08-12T02:35:51.765Z,147
2022-08-12T02:36:24.072Z,147
2022-08-12T02:36:41.130Z,147
2022-08-12T02:37:11.201Z,147
2022-08-12T02:37:34.299Z,147
2022-08-12T02:37:59.135Z,147
2022-08-12T02:38:31.101Z,147
2022-08-12T02:39:04.152Z,147
2022-08-12T02:39:34.394Z,147
2022-08-12T02:40:07.234Z,147
2022-08-12T02:40:34.185Z,147
2022-08-12T02:40:55.240Z,147
2022-08-12T02:41:27.920Z,147
2022-08-12T02:41:59.254Z,147
2022-08-12T02:42:32.101Z,147
2022-08-12T02:43:03.159Z,147
2022-08-12T02:43:34.148Z,147
2022-08-12T02:44:07.858Z,147
2022-08-12T02:44:34.462Z,147
2022-08-12T02:44:55.079Z,147
2022-08-12T02:45:28.223Z,147
2022-08-12T02:45:59.125Z,147
2022-08-12T02:46:31.794Z,147
2022-08-12T02:47:03.151Z,147
2022-08-12T02:47:59.640Z,147
2022-08-12T02:48:07.200Z,147
2022-08-12T02:48:34.116Z,147
2022-08-12T02:48:55.791Z,147
2022-08-12T02:49:27.138Z,147
2022-08-12T02:49:59.891Z,147
2022-08-12T02:50:31.302Z,147
2022-08-12T02:51:03.273Z,147
2022-08-12T02:51:34.210Z,147
2022-08-12T02:52:07.141Z,147
2022-08-12T02:52:34.535Z,147
2022-08-12T02:52:55.141Z,147
2022-08-12T02:53:27.794Z,147
2022-08-12T02:54:04.391Z,147
2022-08-12T02:54:31.821Z,147
2022-08-12T02:55:03.198Z,147
2022-08-12T02:55:35.319Z,147
2022-08-12T02:56:07.243Z,147
2022-08-12T02:56:34.225Z,147
2022-08-12T02:56:56.943Z,147
2022-08-12T02:57:27.093Z,147
2022-08-12T02:58:00.839Z,147
2022-08-12T02:58:33.193Z,147
2022-08-12T02:59:04.023Z,147
2022-08-12T02:59:34.086Z,147
2022-08-12T02:59:52.164Z,147
2022-08-12T03:00:24.079Z,147
2022-08-12T03:00:41.727Z,147
2022-08-12T03:01:11.212Z,147
2022-08-12T03:01:36.436Z,147
2022-08-12T03:01:59.089Z,147
2022-08-12T03:02:31.213Z,147
2022-08-12T03:03:03.388Z,147
2022-08-12T03:03:34.365Z,147
2022-08-12T03:03:51.110Z,147
2022-08-12T03:04:23.892Z,147
2022-08-12T03:04:43.859Z,147
2022-08-12T03:05:11.376Z,147
2022-08-12T03:05:38.622Z,147
2022-08-12T03:06:00.114Z,147
2022-08-12T03:06:31.999Z,147
2022-08-12T03:07:03.164Z,147
2022-08-12T03:07:56.584Z,147
2022-08-12T03:08:08.028Z,147
2022-08-12T03:08:34.358Z,147
2022-08-12T03:08:58.121Z,147
2022-08-12T03:09:28.729Z,147
2022-08-12T03:10:05.556Z,147
2022-08-12T03:10:37.715Z,147
2022-08-12T03:11:03.106Z,147
2022-08-12T03:11:35.304Z,147
2022-08-12T03:11:51.127Z,147
2022-08-12T03:12:23.172Z,147
2022-08-12T03:12:49.363Z,147
2022-08-12T03:13:11.504Z,147
2022-08-12T03:13:34.236Z,147
2022-08-12T03:14:00.015Z,147
2022-08-12T03:14:31.982Z,147
2022-08-12T03:15:03.365Z,147
2022-08-12T03:15:36.852Z,147
2022-08-12T03:16:09.315Z,147
2022-08-12T03:16:34.091Z,147
2022-08-12T03:16:55.526Z,147
2022-08-12T03:17:27.197Z,147
2022-08-12T03:18:25.479Z,147
2022-08-12T03:18:31.098Z,147
2022-08-12T03:19:04.198Z,147
2022-08-12T03:19:34.216Z,147
2022-08-12T03:20:09.377Z,147
2022-08-12T03:20:34.212Z,147
2022-08-12T03:20:55.231Z,147
2022-08-12T03:21:55.298Z,147
2022-08-12T03:22:15.197Z,147
2022-08-12T03:22:34.125Z,147
2022-08-12T03:23:03.080Z,147
2022-08-12T03:23:34.171Z,147
2022-08-12T03:24:07.770Z,147
2022-08-12T03:24:35.260Z,147
2022-08-12T03:24:55.078Z,147
2022-08-12T03:25:28.071Z,147
2022-08-12T03:25:59.361Z,147
2022-08-12T03:26:31.910Z,147
2022-08-12T03:27:03.151Z,147
2022-08-12T03:27:35.852Z,147
2022-08-12T03:28:07.079Z,147
2022-08-12T03:28:36.015Z,147
2022-08-12T03:28:55.191Z,147
2022-08-12T03:29:27.184Z,147
2022-08-12T03:30:00.007Z,147
2022-08-12T03:30:31.260Z,147
2022-08-12T03:31:03.131Z,147
2022-08-12T03:31:35.311Z,147
2022-08-12T03:32:08.006Z,147
2022-08-12T03:32:39.112Z,147
2022-08-12T03:33:11.913Z,147
2022-08-12T03:33:34.321Z,147
2022-08-12T03:34:15.171Z,147
2022-08-12T03:34:34.918Z,147
2022-08-12T03:35:03.222Z,147
2022-08-12T03:35:41.433Z,147
2022-08-12T03:36:07.118Z,147
2022-08-12T03:36:34.104Z,147
2022-08-12T03:36:55.226Z,147
2022-08-12T03:37:27.125Z,147
2022-08-12T03:38:00.811Z,147
2022-08-12T03:38:31.210Z,147
2022-08-12T03:39:03.233Z,147
2022-08-12T03:39:36.875Z,147
2022-08-12T03:40:07.250Z,147
2022-08-12T03:40:34.184Z,147
2022-08-12T03:40:56.374Z,147
2022-08-12T03:41:27.184Z,147
2022-08-12T03:41:59.875Z,147
2022-08-12T03:42:31.193Z,147
2022-08-12T03:43:03.062Z,147
2022-08-12T03:43:35.000Z,147
2022-08-12T03:44:07.241Z,147
2022-08-12T03:44:34.183Z,147
2022-08-12T03:44:55.084Z,147
2022-08-12T03:45:27.274Z,147
2022-08-12T03:46:00.926Z,147
2022-08-12T03:46:31.142Z,147
2022-08-12T03:47:03.933Z,147
2022-08-12T03:47:34.101Z,147
2022-08-12T03:48:07.810Z,147
2022-08-12T03:48:34.105Z,147
2022-08-12T03:48:55.074Z,147
2022-08-12T03:49:27.110Z,147
2022-08-12T03:49:59.105Z,147
2022-08-12T03:50:31.355Z,147
2022-08-12T03:51:03.110Z,147
2022-08-12T03:51:34.139Z,147
2022-08-12T03:52:08.477Z,147
2022-08-12T03:52:35.294Z,147
2022-08-12T03:52:55.244Z,147
2022-08-12T03:53:27.827Z,147
2022-08-12T03:53:59.092Z,147
2022-08-12T03:54:32.071Z,147
2022-08-12T03:55:03.394Z,147
2022-08-12T03:55:37.118Z,147
2022-08-12T03:56:07.105Z,147
2022-08-12T03:56:34.611Z,147
2022-08-12T03:56:55.180Z,147
2022-08-12T03:57:27.259Z,147
2022-08-12T03:57:59.818Z,147
2022-08-12T03:58:32.089Z,147
2022-08-12T03:59:03.929Z,147
2022-08-12T03:59:34.243Z,147
2022-08-12T04:00:07.381Z,147
2022-08-12T04:00:35.007Z,147
2022-08-12T04:00:55.328Z,147
2022-08-12T04:01:27.858Z,147
2022-08-12T04:01:59.749Z,147
2022-08-12T04:02:31.140Z,147
2022-08-12T04:03:03.586Z,147
2022-08-12T04:03:35.540Z,147
2022-08-12T04:04:07.208Z,147
2022-08-12T04:04:34.304Z,147
2022-08-12T04:04:55.847Z,147
2022-08-12T04:05:54.652Z,147
2022-08-12T04:05:59.946Z,147
2022-08-12T04:06:35.158Z,147
2022-08-12T04:07:03.852Z,147
2022-08-12T04:07:34.116Z,147
2022-08-12T04:08:07.180Z,147
2022-08-12T04:08:34.547Z,147
2022-08-12T04:08:55.073Z,147
2022-08-12T04:09:27.860Z,147
2022-08-12T04:09:59.198Z,147
2022-08-12T04:10:32.978Z,147
2022-08-12T04:11:04.071Z,147
2022-08-12T04:11:34.121Z,147
2022-08-12T04:12:07.874Z,147
2022-08-12T04:12:34.233Z,147
2022-08-12T04:12:55.292Z,147
2022-08-12T04:13:27.059Z,147
2022-08-12T04:13:59.081Z,147
2022-08-12T04:14:31.184Z,147
2022-08-12T04:15:20.080Z,147
2022-08-12T04:15:51.080Z,147
2022-08-12T04:16:23.179Z,147
2022-08-12T04:16:41.097Z,147
2022-08-12T04:17:12.245Z,147
2022-08-12T04:17:34.196Z,147
2022-08-12T04:18:07.385Z,147
2022-08-12T04:18:31.212Z,147
2022-08-12T04:19:03.425Z,147
2022-08-12T04:19:34.991Z,147
2022-08-12T04:20:07.340Z,147
2022-08-12T04:20:34.845Z,147
2022-08-12T04:20:56.450Z,147
2022-08-12T04:21:28.038Z,147
2022-08-12T04:22:02.478Z,147
2022-08-12T04:22:32.140Z,147
2022-08-12T04:23:03.205Z,147
2022-08-12T04:23:35.306Z,147
2022-08-12T04:24:07.158Z,147
2022-08-12T04:24:34.271Z,147
2022-08-12T04:24:55.964Z,147
2022-08-12T04:25:27.379Z,147
2022-08-12T04:26:00.207Z,147
2022-08-12T04:26:31.917Z,147
2022-08-12T04:27:04.123Z,147
2022-08-12T04:27:35.166Z,147
2022-08-12T04:28:13.408Z,147
2022-08-12T04:28:34.268Z,147
2022-08-12T04:28:55.930Z,147
2022-08-12T04:30:29.374Z,147
2022-08-12T04:30:36.437Z,147
2022-08-12T04:31:03.885Z,147
2022-08-12T04:31:34.206Z,147
2022-08-12T04:32:07.239Z,147
2022-08-12T04:32:35.497Z,147
2022-08-12T04:32:55.151Z,147
2022-08-12T04:33:29.172Z,147
2022-08-12T04:33:59.272Z,147
2022-08-12T04:34:32.031Z,147
2022-08-12T04:35:03.282Z,147
2022-08-12T04:35:35.811Z,147
2022-08-12T04:36:07.340Z,147
2022-08-12T04:36:34.211Z,147
2022-08-12T04:37:11.826Z,147
2022-08-12T04:37:58.363Z,147
2022-08-12T04:38:21.687Z,147
2022-08-12T04:38:47.261Z,147
2022-08-12T04:39:19.222Z,147
2022-08-12T04:39:52.095Z,147
2022-08-12T04:40:28.290Z,147
2022-08-12T04:40:41.859Z,147
2022-08-12T04:41:27.150Z,147
2022-08-12T04:41:59.157Z,147
2022-08-12T04:42:31.351Z,147
2022-08-12T04:43:03.240Z,147
2022-08-12T04:44:00.148Z,147
2022-08-12T04:44:07.965Z,147
2022-08-12T04:44:35.110Z,147
2022-08-12T04:44:55.234Z,147
2022-08-12T04:45:28.130Z,147
2022-08-12T04:45:59.124Z,147
2022-08-12T04:46:33.699Z,147
2022-08-12T04:47:04.356Z,147
2022-08-12T04:47:37.879Z,147
2022-08-12T04:48:07.178Z,147
2022-08-12T04:48:34.215Z,147
2022-08-12T04:48:55.559Z,147
2022-08-12T04:49:33.210Z,147
2022-08-12T04:50:02.614Z,147
2022-08-12T04:50:45.349Z,147
2022-08-12T04:51:04.122Z,147
2022-08-12T04:51:36.132Z,147
2022-08-12T04:52:07.138Z,147
2022-08-12T04:52:35.031Z,147
2022-08-12T04:52:56.010Z,147
2022-08-12T04:53:27.178Z,147
2022-08-12T04:53:59.801Z,147
2022-08-12T04:54:31.103Z,147
2022-08-12T04:55:03.844Z,147
2022-08-12T04:55:34.358Z,147
2022-08-12T04:55:51.838Z,147
2022-08-12T04:56:23.160Z,147
2022-08-12T04:56:40.229Z,147
2022-08-12T04:57:11.621Z,147
2022-08-12T04:57:34.585Z,147
2022-08-12T04:57:59.206Z,147
2022-08-12T04:58:31.134Z,147
2022-08-12T04:59:03.194Z,147
2022-08-12T04:59:46.576Z,147
2022-08-12T04:59:50.966Z,147
2022-08-12T05:00:24.066Z,147
2022-08-12T05:00:41.823Z,147
2022-08-12T05:01:11.194Z,147
2022-08-12T05:01:34.204Z,147
2022-08-12T05:01:59.237Z,147
2022-08-12T05:02:31.855Z,147
2022-08-12T05:03:03.271Z,147
2022-08-12T05:03:46.490Z,147
2022-08-12T05:04:07.170Z,147
2022-08-12T05:04:34.302Z,147
2022-08-12T05:04:55.145Z,147
2022-08-12T05:05:27.879Z,147
2022-08-12T05:06:01.089Z,147
2022-08-12T05:06:31.092Z,147
2022-08-12T05:07:03.806Z,147
2022-08-12T05:07:34.281Z,147
2022-08-12T05:07:54.225Z,147
2022-08-12T05:08:23.103Z,147
2022-08-12T05:08:40.305Z,147
2022-08-12T05:09:13.578Z,147
2022-08-12T05:10:00.402Z,147
2022-08-12T05:10:15.973Z,147
2022-08-12T05:10:36.273Z,147
2022-08-12T05:11:03.248Z,147
2022-08-12T05:11:34.349Z,147
2022-08-12T05:12:07.134Z,147
2022-08-12T05:12:34.423Z,147
2022-08-12T05:12:55.261Z,147
2022-08-12T05:13:27.611Z,147
2022-08-12T05:13:59.111Z,147
2022-08-12T05:14:37.010Z,147
2022-08-12T05:15:04.182Z,147
2022-08-12T05:15:36.073Z,147
2022-08-12T05:16:09.308Z,147
2022-08-12T05:16:36.011Z,147
2022-08-12T05:16:55.122Z,147
2022-08-12T05:17:27.205Z,147
2022-08-12T05:18:02.202Z,147
2022-08-12T05:18:31.153Z,147
2022-08-12T05:19:03.669Z,147
2022-08-12T05:19:34.246Z,147
2022-08-12T05:20:07.844Z,147
2022-08-12T05:20:34.337Z,147
2022-08-12T05:20:55.266Z,147
2022-08-12T05:21:30.632Z,147
2022-08-12T05:21:59.256Z,147
2022-08-12T05:22:31.184Z,147
2022-08-12T05:23:10.160Z,147
2022-08-12T05:23:34.207Z,147
2022-08-12T05:23:51.222Z,147
2022-08-12T05:24:23.631Z,147
2022-08-12T05:24:40.891Z,147
2022-08-12T05:25:11.255Z,147
2022-08-12T05:25:34.304Z,147
2022-08-12T05:26:00.202Z,147
2022-08-12T05:26:31.690Z,147
2022-08-12T05:27:03.093Z,147
2022-08-12T05:27:34.997Z,147
2022-08-12T05:28:08.194Z,147
2022-08-12T05:28:34.226Z,147
2022-08-12T05:28:55.220Z,147
2022-08-12T05:30:06.534Z,147
2022-08-12T05:30:15.344Z,147
2022-08-12T05:30:35.004Z,147
2022-08-12T05:31:03.771Z,147
2022-08-12T05:31:42.430Z,147
2022-08-12T05:31:51.138Z,147
2022-08-12T05:32:23.241Z,147
2022-08-12T05:32:41.709Z,147
2022-08-12T05:33:11.096Z,147
2022-08-12T05:33:35.379Z,147
2022-08-12T05:34:00.056Z,147
2022-08-12T05:34:32.756Z,147
2022-08-12T05:35:03.303Z,147
2022-08-12T05:35:35.094Z,147
2022-08-12T05:36:08.135Z,147
2022-08-12T05:36:34.388Z,147
2022-08-12T05:36:55.244Z,147
2022-08-12T05:37:27.191Z,147
2022-08-12T05:38:00.012Z,147
2022-08-12T05:38:31.105Z,147
2022-08-12T05:39:04.081Z,147
2022-08-12T05:39:34.375Z,147
2022-08-12T05:39:51.451Z,147
2022-08-12T05:40:23.252Z,147
2022-08-12T05:40:40.233Z,147
2022-08-12T05:41:11.618Z,147
2022-08-12T05:41:34.219Z,147
2022-08-12T05:41:59.144Z,147
2022-08-12T05:42:34.605Z,147
2022-08-12T05:43:03.194Z,147
2022-08-12T05:43:34.325Z,147
2022-08-12T05:43:51.595Z,147
2022-08-12T05:44:24.404Z,147
2022-08-12T05:44:40.910Z,147
2022-08-12T05:45:11.365Z,147
2022-08-12T05:45:34.461Z,147
2022-08-12T05:45:59.245Z,147
2022-08-12T05:46:31.744Z,147
2022-08-12T05:47:05.041Z,147
2022-08-12T05:47:48.519Z,147
2022-08-12T05:48:07.110Z,147
2022-08-12T05:48:35.271Z,147
2022-08-12T05:49:11.200Z,147
2022-08-12T05:49:35.714Z,147
2022-08-12T05:49:59.876Z,147
2022-08-12T05:50:31.382Z,147
2022-08-12T05:51:03.927Z,147
2022-08-12T05:51:40.099Z,147
2022-08-12T05:52:07.666Z,147
2022-08-12T05:52:34.342Z,147
2022-08-12T05:52:55.126Z,147
2022-08-12T05:53:27.189Z,147
2022-08-12T05:53:59.204Z,147
2022-08-12T05:54:56.221Z,147
2022-08-12T05:55:03.230Z,147
2022-08-12T05:55:34.882Z,147
2022-08-12T05:56:07.287Z,147
2022-08-12T05:56:35.340Z,147
2022-08-12T05:56:55.085Z,147
2022-08-12T05:57:28.088Z,147
2022-08-12T05:57:59.212Z,147
2022-08-12T05:58:31.725Z,32
2022-08-12T05:59:03.073Z,31
2022-08-12T05:59:36.179Z,32
2022-08-12T06:00:07.383Z,32
2022-08-12T06:00:35.213Z,32
2022-08-12T06:00:55.394Z,32
2022-08-12T06:02:12.736Z,32
2022-08-12T06:02:15.214Z,32
2022-08-12T06:02:36.547Z,32
2022-08-12T06:03:04.606Z,32
2022-08-12T06:03:34.255Z,29
2022-08-12T06:03:51.170Z,40
2022-08-12T06:04:24.223Z,39
2022-08-12T06:04:40.687Z,38
2022-08-12T06:05:15.408Z,39
2022-08-12T06:05:34.309Z,35
2022-08-12T06:05:59.226Z,35
2022-08-12T06:06:31.711Z,35
2022-08-12T06:07:42.790Z,35
2022-08-12T06:08:11.182Z,43
2022-08-12T06:08:34.224Z,31
2022-08-12T06:08:55.261Z,31
2022-08-12T06:09:27.737Z,31
2022-08-12T06:09:59.099Z,27
2022-08-12T06:10:35.802Z,27
2022-08-12T06:11:03.218Z,27
2022-08-12T06:11:35.002Z,27
2022-08-12T06:12:07.114Z,27
2022-08-12T06:12:34.529Z,27
2022-08-12T06:12:55.778Z,27
2022-08-12T06:13:52.704Z,27
2022-08-12T06:14:11.726Z,47
2022-08-12T06:14:31.068Z,43
2022-08-12T06:15:03.342Z,31
2022-08-12T06:15:35.311Z,31
2022-08-12T06:16:07.071Z,37
2022-08-12T06:16:36.171Z,27
2022-08-12T06:16:56.021Z,31
2022-08-12T06:17:27.182Z,11
2022-08-12T06:17:59.099Z,11
2022-08-12T06:18:32.937Z,8
2022-08-12T06:19:10.267Z,6
2022-08-12T06:20:26.055Z,16
2022-08-12T06:21:35.892Z,16
2022-08-12T06:22:45.229Z,16
2022-08-12T06:23:51.339Z,44
2022-08-12T06:24:23.969Z,45
2022-08-12T06:24:41.031Z,33
2022-08-12T06:25:17.551Z,39
2022-08-12T06:25:34.367Z,24
2022-08-12T06:25:59.381Z,43
2022-08-12T06:27:05.517Z,43
2022-08-12T06:27:10.228Z,30
2022-08-12T06:27:34.313Z,33
2022-08-12T06:28:06.768Z,41
2022-08-12T06:28:49.253Z,13
2022-08-12T06:29:16.740Z,35
2022-08-12T06:30:25.471Z,9
2022-08-12T06:31:02.688Z,9
2022-08-12T06:31:26.615Z,31
2022-08-12T06:32:00.637Z,36
2022-08-12T06:33:11.680Z,27
2022-08-12T06:33:59.579Z,30
2022-08-12T06:35:47.807Z,34
2022-08-12T06:36:02.593Z,52
2022-08-12T06:36:36.050Z,22
2022-08-12T06:36:55.972Z,13
2022-08-12T06:37:27.102Z,39
2022-08-12T06:38:05.302Z,16
2022-08-12T06:38:35.398Z,13
2022-08-12T06:39:16.022Z,349
2022-08-12T06:39:35.055Z,25
2022-08-12T06:40:11.418Z,359
2022-08-12T06:40:35.302Z,21
2022-08-12T06:41:03.079Z,41
2022-08-12T06:41:27.131Z,35
2022-08-12T06:42:22.722Z,88
2022-08-12T06:42:47.502Z,100
2022-08-12T06:43:19.911Z,152
2022-08-12T06:44:04.679Z,69
2022-08-12T06:44:23.868Z,59
2022-08-12T06:44:42.748Z,62
2022-08-12T06:45:12.444Z,29
2022-08-12T06:45:46.277Z,19
2022-08-12T06:45:59.274Z,14
2022-08-12T06:46:32.667Z,178
2022-08-12T06:47:03.182Z,33
2022-08-12T06:47:35.127Z,45
2022-08-12T06:48:19.204Z,33
2022-08-12T06:49:08.172Z,115
2022-08-12T06:49:32.481Z,346
2022-08-12T06:49:59.384Z,17
2022-08-12T06:50:31.245Z,12
2022-08-12T06:51:03.847Z,150
2022-08-12T06:51:34.521Z,35
2022-08-12T06:51:56.338Z,35